sensor_id;sensor_type;location;lat;lon;timestamp;pressure;altitude;pressure_sealevel;temperature;humidity
74524;BME280;63074;44.696;10.358;2023-09-18T00:00:49;100188.97;;;32.43;100.00
74524;BME280;63074;44.696;10.358;2023-09-18T00:03:17;100195.59;;;32.32;100.00
74524;BME280;63074;44.696;10.358;2023-09-18T00:05:46;100198.97;;;31.39;100.00
74524;BME280;63074;44.696;10.358;2023-09-18T00:08:14;100191.59;;;32.29;100.00
74524;BME280;63074;44.696;10.358;2023-09-18T00:10:41;100186.28;;;31.91;100.00
74524;BME280;63074;44.696;10.358;2023-09-18T00:13:07;100182.97;;;32.41;100.00
74524;BME280;63074;44.696;10.358;2023-09-18T00:15:33;100176.13;;;32.69;100.00
74524;BME280;63074;44.696;10.358;2023-09-18T00:18:00;100167.97;;;32.49;100.00
74524;BME280;63074;44.696;10.358;2023-09-18T00:20:27;100176.19;;;32.39;100.00
74524;BME280;63074;44.696;10.358;2023-09-18T00:22:56;100160.66;;;33.60;100.00
74524;BME280;63074;44.696;10.358;2023-09-18T00:25:22;100140.50;;;33.80;99.39
74524;BME280;63074;44.696;10.358;2023-09-18T00:27:49;100125.34;;;33.74;97.95
74524;BME280;63074;44.696;10.358;2023-09-18T00:30:15;100140.63;;;33.36;100.00
74524;BME280;63074;44.696;10.358;2023-09-18T00:32:41;100147.06;;;32.63;100.00
74524;BME280;63074;44.696;10.358;2023-09-18T00:35:07;100163.78;;;32.29;100.00
74524;BME280;63074;44.696;10.358;2023-09-18T00:37:34;100148.00;;;33.18;100.00
74524;BME280;63074;44.696;10.358;2023-09-18T00:40:00;100144.56;;;33.32;100.00
74524;BME280;63074;44.696;10.358;2023-09-18T00:42:26;100143.44;;;33.40;100.00
74524;BME280;63074;44.696;10.358;2023-09-18T00:44:53;100141.53;;;33.58;100.00
74524;BME280;63074;44.696;10.358;2023-09-18T00:47:20;100133.41;;;33.32;100.00
74524;BME280;63074;44.696;10.358;2023-09-18T00:49:48;100126.28;;;34.00;97.17
74524;BME280;63074;44.696;10.358;2023-09-18T00:52:16;100129.22;;;32.67;100.00
74524;BME280;63074;44.696;10.358;2023-09-18T00:54:43;100139.41;;;32.52;100.00
74524;BME280;63074;44.696;10.358;2023-09-18T00:57:11;100137.44;;;32.90;100.00
74524;BME280;63074;44.696;10.358;2023-09-18T00:59:39;100127.84;;;32.84;100.00
74524;BME280;63074;44.696;10.358;2023-09-18T01:02:05;100111.84;;;33.25;100.00
74524;BME280;63074;44.696;10.358;2023-09-18T01:04:33;100118.84;;;32.61;100.00
74524;BME280;63074;44.696;10.358;2023-09-18T01:07:00;100113.66;;;32.59;100.00
74524;BME280;63074;44.696;10.358;2023-09-18T01:09:30;100113.63;;;32.55;100.00
74524;BME280;63074;44.696;10.358;2023-09-18T01:17:34;100113.22;;;33.45;100.00
74524;BME280;63074;44.696;10.358;2023-09-18T01:20:00;100114.97;;;32.72;100.00
74524;BME280;63074;44.696;10.358;2023-09-18T01:22:30;100105.75;;;33.60;98.55
74524;BME280;63074;44.696;10.358;2023-09-18T01:24:56;100102.44;;;32.93;100.00
74524;BME280;63074;44.696;10.358;2023-09-18T01:27:22;100097.03;;;33.10;100.00
74524;BME280;63074;44.696;10.358;2023-09-18T01:29:49;100095.91;;;33.77;95.90
74524;BME280;63074;44.696;10.358;2023-09-18T01:32:15;100086.97;;;33.50;97.61
74524;BME280;63074;44.696;10.358;2023-09-18T01:34:49;100085.03;;;33.03;100.00
74524;BME280;63074;44.696;10.358;2023-09-18T01:37:18;100092.09;;;32.49;100.00
74524;BME280;63074;44.696;10.358;2023-09-18T01:39:47;100091.16;;;31.71;100.00
74524;BME280;63074;44.696;10.358;2023-09-18T01:42:14;100081.84;;;31.89;100.00
74524;BME280;63074;44.696;10.358;2023-09-18T01:44:41;100082.03;;;32.37;100.00
74524;BME280;63074;44.696;10.358;2023-09-18T01:47:08;100084.41;;;32.05;100.00
74524;BME280;63074;44.696;10.358;2023-09-18T01:49:36;100093.97;;;32.08;100.00
74524;BME280;63074;44.696;10.358;2023-09-18T01:52:04;100092.00;;;32.05;100.00
74524;BME280;63074;44.696;10.358;2023-09-18T01:54:32;100089.25;;;32.12;100.00
74524;BME280;63074;44.696;10.358;2023-09-18T01:56:58;100082.25;;;32.21;100.00
74524;BME280;63074;44.696;10.358;2023-09-18T01:59:25;100083.69;;;31.78;100.00
74524;BME280;63074;44.696;10.358;2023-09-18T02:01:52;100070.22;;;32.88;100.00
74524;BME280;63074;44.696;10.358;2023-09-18T02:04:20;100063.94;;;32.98;100.00
74524;BME280;63074;44.696;10.358;2023-09-18T02:06:49;100056.50;;;33.13;100.00
74524;BME280;63074;44.696;10.358;2023-09-18T02:09:16;100040.59;;;32.69;100.00
74524;BME280;63074;44.696;10.358;2023-09-18T02:11:44;100033.56;;;33.34;99.76
74524;BME280;63074;44.696;10.358;2023-09-18T02:14:11;100027.28;;;33.44;99.56
74524;BME280;63074;44.696;10.358;2023-09-18T02:16:39;100021.06;;;33.82;95.99
74524;BME280;63074;44.696;10.358;2023-09-18T02:19:10;100025.78;;;33.02;100.00
74524;BME280;63074;44.696;10.358;2023-09-18T02:21:37;100024.16;;;32.13;100.00
74524;BME280;63074;44.696;10.358;2023-09-18T02:24:03;100028.56;;;33.68;100.00
74524;BME280;63074;44.696;10.358;2023-09-18T02:26:30;100020.81;;;33.29;100.00
74524;BME280;63074;44.696;10.358;2023-09-18T02:29:00;100018.28;;;33.10;100.00
74524;BME280;63074;44.696;10.358;2023-09-18T02:31:27;100011.34;;;33.41;100.00
74524;BME280;63074;44.696;10.358;2023-09-18T02:33:53;100006.19;;;33.50;100.00
74524;BME280;63074;44.696;10.358;2023-09-18T02:36:19;100014.38;;;33.21;100.00
74524;BME280;63074;44.696;10.358;2023-09-18T02:38:45;100006.75;;;33.08;100.00
74524;BME280;63074;44.696;10.358;2023-09-18T02:41:11;99993.69;;;34.02;97.11
74524;BME280;63074;44.696;10.358;2023-09-18T02:43:38;99990.06;;;33.91;96.41
74524;BME280;63074;44.696;10.358;2023-09-18T02:46:05;99966.22;;;34.72;91.56
74524;BME280;63074;44.696;10.358;2023-09-18T02:48:31;99973.38;;;34.12;93.29
74524;BME280;63074;44.696;10.358;2023-09-18T02:50:59;99971.28;;;33.77;96.54
74524;BME280;63074;44.696;10.358;2023-09-18T02:53:26;99957.47;;;34.70;91.49
74524;BME280;63074;44.696;10.358;2023-09-18T02:55:54;99977.97;;;33.55;97.96
74524;BME280;63074;44.696;10.358;2023-09-18T02:58:21;99983.69;;;33.07;100.00
74524;BME280;63074;44.696;10.358;2023-09-18T03:00:49;99979.69;;;33.84;96.74
74524;BME280;63074;44.696;10.358;2023-09-18T03:03:17;99992.66;;;33.52;99.09
74524;BME280;63074;44.696;10.358;2023-09-18T03:05:44;99994.56;;;34.35;93.44
74524;BME280;63074;44.696;10.358;2023-09-18T03:08:11;99994.88;;;34.12;92.52
74524;BME280;63074;44.696;10.358;2023-09-18T03:10:39;100007.31;;;33.35;97.75
74524;BME280;63074;44.696;10.358;2023-09-18T03:13:06;100015.31;;;32.81;100.00
74524;BME280;63074;44.696;10.358;2023-09-18T03:15:34;100017.00;;;32.97;100.00
74524;BME280;63074;44.696;10.358;2023-09-18T03:18:01;100014.34;;;32.67;100.00
74524;BME280;63074;44.696;10.358;2023-09-18T03:20:29;100008.81;;;31.89;100.00
74524;BME280;63074;44.696;10.358;2023-09-18T03:22:58;100006.94;;;32.34;100.00
74524;BME280;63074;44.696;10.358;2023-09-18T03:25:25;99996.03;;;32.18;100.00
74524;BME280;63074;44.696;10.358;2023-09-18T03:27:55;99992.72;;;31.68;100.00
74524;BME280;63074;44.696;10.358;2023-09-18T03:30:23;99991.56;;;31.43;100.00
74524;BME280;63074;44.696;10.358;2023-09-18T03:32:54;99982.78;;;32.89;100.00
74524;BME280;63074;44.696;10.358;2023-09-18T03:35:21;99979.66;;;33.01;100.00
74524;BME280;63074;44.696;10.358;2023-09-18T03:37:52;99989.91;;;32.86;100.00
74524;BME280;63074;44.696;10.358;2023-09-18T03:40:20;99997.25;;;32.65;100.00
74524;BME280;63074;44.696;10.358;2023-09-18T03:42:46;99999.97;;;32.17;100.00
74524;BME280;63074;44.696;10.358;2023-09-18T03:45:13;100006.38;;;33.13;100.00
74524;BME280;63074;44.696;10.358;2023-09-18T03:47:41;100020.69;;;33.11;100.00
74524;BME280;63074;44.696;10.358;2023-09-18T03:50:08;100017.50;;;32.62;100.00
74524;BME280;63074;44.696;10.358;2023-09-18T03:52:35;100013.28;;;33.33;98.39
74524;BME280;63074;44.696;10.358;2023-09-18T03:55:02;100013.19;;;33.26;99.00
74524;BME280;63074;44.696;10.358;2023-09-18T03:57:28;100015.78;;;32.94;100.00
74524;BME280;63074;44.696;10.358;2023-09-18T03:59:55;100014.63;;;32.99;100.00
74524;BME280;63074;44.696;10.358;2023-09-18T04:02:23;100011.53;;;32.60;100.00
74524;BME280;63074;44.696;10.358;2023-09-18T04:04:49;100010.66;;;33.65;97.74
74524;BME280;63074;44.696;10.358;2023-09-18T04:07:16;100016.38;;;33.25;100.00
74524;BME280;63074;44.696;10.358;2023-09-18T04:09:42;100008.28;;;33.71;95.63
74524;BME280;63074;44.696;10.358;2023-09-18T04:12:09;100011.88;;;33.75;95.07
74524;BME280;63074;44.696;10.358;2023-09-18T04:14:35;100016.34;;;32.63;100.00
74524;BME280;63074;44.696;10.358;2023-09-18T04:17:02;100018.53;;;32.87;100.00
74524;BME280;63074;44.696;10.358;2023-09-18T04:19:28;100026.44;;;33.40;98.07
74524;BME280;63074;44.696;10.358;2023-09-18T04:21:55;100015.38;;;32.92;100.00
74524;BME280;63074;44.696;10.358;2023-09-18T04:24:22;100016.19;;;33.62;96.70
74524;BME280;63074;44.696;10.358;2023-09-18T04:26:48;100015.13;;;33.84;94.08
74524;BME280;63074;44.696;10.358;2023-09-18T04:29:17;100015.91;;;33.81;93.56
74524;BME280;63074;44.696;10.358;2023-09-18T04:31:43;100016.34;;;33.90;94.12
74524;BME280;63074;44.696;10.358;2023-09-18T04:34:10;100014.34;;;33.94;92.80
74524;BME280;63074;44.696;10.358;2023-09-18T04:36:36;100009.28;;;33.31;97.09
74524;BME280;63074;44.696;10.358;2023-09-18T04:39:04;100008.81;;;34.12;92.15
74524;BME280;63074;44.696;10.358;2023-09-18T04:41:31;100000.84;;;34.10;90.30
74524;BME280;63074;44.696;10.358;2023-09-18T04:43:57;100002.44;;;34.18;90.52
74524;BME280;63074;44.696;10.358;2023-09-18T04:46:23;100004.47;;;34.29;89.83
74524;BME280;63074;44.696;10.358;2023-09-18T04:48:51;100022.44;;;34.42;90.08
74524;BME280;63074;44.696;10.358;2023-09-18T04:51:17;100016.28;;;33.07;99.12
74524;BME280;63074;44.696;10.358;2023-09-18T04:53:43;100027.47;;;32.66;100.00
74524;BME280;63074;44.696;10.358;2023-09-18T04:56:10;100033.38;;;32.58;100.00
74524;BME280;63074;44.696;10.358;2023-09-18T04:58:37;100029.03;;;32.60;100.00
74524;BME280;63074;44.696;10.358;2023-09-18T05:01:03;100030.06;;;33.51;98.20
74524;BME280;63074;44.696;10.358;2023-09-18T05:03:36;100032.91;;;33.58;97.53
74524;BME280;63074;44.696;10.358;2023-09-18T05:06:02;100007.84;;;33.65;96.83
74524;BME280;63074;44.696;10.358;2023-09-18T05:08:31;100020.03;;;34.44;92.35
74524;BME280;63074;44.696;10.358;2023-09-18T05:10:57;100006.81;;;34.09;94.27
74524;BME280;63074;44.696;10.358;2023-09-18T05:13:24;100008.41;;;34.10;93.23
74524;BME280;63074;44.696;10.358;2023-09-18T05:15:50;100023.34;;;33.55;97.29
74524;BME280;63074;44.696;10.358;2023-09-18T05:18:16;100020.63;;;33.04;100.00
74524;BME280;63074;44.696;10.358;2023-09-18T05:20:42;100024.13;;;32.91;100.00
74524;BME280;63074;44.696;10.358;2023-09-18T05:23:09;100026.13;;;32.90;100.00
74524;BME280;63074;44.696;10.358;2023-09-18T05:25:35;100024.31;;;32.68;100.00
74524;BME280;63074;44.696;10.358;2023-09-18T05:28:04;100030.50;;;33.49;99.98
74524;BME280;63074;44.696;10.358;2023-09-18T05:30:33;100035.81;;;32.63;100.00
74524;BME280;63074;44.696;10.358;2023-09-18T05:33:02;100057.34;;;33.20;100.00
74524;BME280;63074;44.696;10.358;2023-09-18T05:35:44;100040.41;;;33.47;99.03
74524;BME280;63074;44.696;10.358;2023-09-18T05:38:12;100049.06;;;34.18;94.20
74524;BME280;63074;44.696;10.358;2023-09-18T05:40:42;100039.88;;;34.03;95.85
74524;BME280;63074;44.696;10.358;2023-09-18T05:43:09;100039.16;;;33.37;100.00
74524;BME280;63074;44.696;10.358;2023-09-18T05:45:36;100041.75;;;33.09;100.00
74524;BME280;63074;44.696;10.358;2023-09-18T05:48:02;100041.91;;;33.30;100.00
74524;BME280;63074;44.696;10.358;2023-09-18T05:50:33;100036.63;;;33.91;96.92
74524;BME280;63074;44.696;10.358;2023-09-18T05:53:00;100046.25;;;34.14;94.68
74524;BME280;63074;44.696;10.358;2023-09-18T05:55:30;100048.34;;;34.35;94.50
74524;BME280;63074;44.696;10.358;2023-09-18T05:57:57;100041.56;;;34.47;95.63
74524;BME280;63074;44.696;10.358;2023-09-18T06:00:23;100040.13;;;31.86;100.00
74524;BME280;63074;44.696;10.358;2023-09-18T06:02:50;100026.34;;;29.96;100.00
74524;BME280;63074;44.696;10.358;2023-09-18T06:05:17;100003.31;;;30.80;100.00
74524;BME280;63074;44.696;10.358;2023-09-18T06:07:50;99994.19;;;33.32;100.00
74524;BME280;63074;44.696;10.358;2023-09-18T06:10:16;99967.63;;;33.55;100.00
74524;BME280;63074;44.696;10.358;2023-09-18T06:12:44;99970.16;;;34.10;100.00
74524;BME280;63074;44.696;10.358;2023-09-18T06:15:11;99966.78;;;33.41;100.00
74524;BME280;63074;44.696;10.358;2023-09-18T06:17:43;99979.59;;;33.63;100.00
74524;BME280;63074;44.696;10.358;2023-09-18T06:20:10;99990.28;;;33.47;100.00
74524;BME280;63074;44.696;10.358;2023-09-18T06:22:39;99984.41;;;32.97;100.00
74524;BME280;63074;44.696;10.358;2023-09-18T06:25:06;99995.25;;;33.96;100.00
74524;BME280;63074;44.696;10.358;2023-09-18T06:27:35;99997.50;;;33.62;100.00
74524;BME280;63074;44.696;10.358;2023-09-18T06:30:05;100001.84;;;33.49;100.00
74524;BME280;63074;44.696;10.358;2023-09-18T06:32:32;99992.09;;;34.15;100.00
74524;BME280;63074;44.696;10.358;2023-09-18T06:34:58;99989.75;;;34.32;100.00
74524;BME280;63074;44.696;10.358;2023-09-18T06:37:25;99989.09;;;32.82;100.00
74524;BME280;63074;44.696;10.358;2023-09-18T06:39:51;100001.72;;;31.05;100.00
74524;BME280;63074;44.696;10.358;2023-09-18T06:42:17;100010.31;;;33.08;100.00
74524;BME280;63074;44.696;10.358;2023-09-18T06:44:44;100004.88;;;34.27;100.00
74524;BME280;63074;44.696;10.358;2023-09-18T06:47:10;100000.91;;;34.42;100.00
74524;BME280;63074;44.696;10.358;2023-09-18T06:49:37;100003.66;;;34.17;100.00
74524;BME280;63074;44.696;10.358;2023-09-18T06:52:03;99998.38;;;33.80;100.00
74524;BME280;63074;44.696;10.358;2023-09-18T06:54:30;100017.53;;;33.16;100.00
74524;BME280;63074;44.696;10.358;2023-09-18T06:56:57;100004.84;;;34.24;100.00
74524;BME280;63074;44.696;10.358;2023-09-18T06:59:23;99983.34;;;34.17;100.00
74524;BME280;63074;44.696;10.358;2023-09-18T07:01:49;99965.06;;;34.87;97.21
74524;BME280;63074;44.696;10.358;2023-09-18T07:04:15;99961.06;;;34.84;96.69
74524;BME280;63074;44.696;10.358;2023-09-18T07:06:41;99960.75;;;33.32;100.00
74524;BME280;63074;44.696;10.358;2023-09-18T07:09:07;99954.66;;;34.06;100.00
74524;BME280;63074;44.696;10.358;2023-09-18T07:11:37;99955.88;;;34.69;98.30
74524;BME280;63074;44.696;10.358;2023-09-18T07:14:04;99961.06;;;34.42;100.00
74524;BME280;63074;44.696;10.358;2023-09-18T07:16:32;99980.91;;;33.91;100.00
74524;BME280;63074;44.696;10.358;2023-09-18T07:19:00;99986.16;;;34.28;99.38
74524;BME280;63074;44.696;10.358;2023-09-18T07:21:27;99976.16;;;34.12;100.00
74524;BME280;63074;44.696;10.358;2023-09-18T07:23:54;99974.38;;;33.54;100.00
74524;BME280;63074;44.696;10.358;2023-09-18T07:26:21;99978.50;;;33.85;100.00
74524;BME280;63074;44.696;10.358;2023-09-18T07:28:47;99965.00;;;35.05;95.09
74524;BME280;63074;44.696;10.358;2023-09-18T07:31:14;99959.44;;;34.76;97.43
74524;BME280;63074;44.696;10.358;2023-09-18T07:33:41;99961.88;;;34.35;99.71
74524;BME280;63074;44.696;10.358;2023-09-18T07:36:08;99964.63;;;34.67;97.08
74524;BME280;63074;44.696;10.358;2023-09-18T07:38:36;99961.00;;;35.09;94.23
74524;BME280;63074;44.696;10.358;2023-09-18T07:41:03;99959.81;;;35.03;94.51
74524;BME280;63074;44.696;10.358;2023-09-18T07:43:29;99950.28;;;34.94;95.20
74524;BME280;63074;44.696;10.358;2023-09-18T07:45:55;99955.47;;;34.92;94.54
74524;BME280;63074;44.696;10.358;2023-09-18T07:48:23;99970.91;;;35.35;93.33
74524;BME280;63074;44.696;10.358;2023-09-18T07:50:49;99973.03;;;34.85;96.36
74524;BME280;63074;44.696;10.358;2023-09-18T07:53:15;99962.16;;;35.30;95.38
74524;BME280;63074;44.696;10.358;2023-09-18T07:55:42;99951.81;;;35.12;95.32
74524;BME280;63074;44.696;10.358;2023-09-18T07:58:09;99951.59;;;35.73;91.96
74524;BME280;63074;44.696;10.358;2023-09-18T08:00:35;99951.72;;;35.48;91.92
74524;BME280;63074;44.696;10.358;2023-09-18T08:03:01;99955.22;;;35.66;90.72
74524;BME280;63074;44.696;10.358;2023-09-18T08:05:28;99963.47;;;34.43;98.32
74524;BME280;63074;44.696;10.358;2023-09-18T08:07:57;99940.34;;;34.82;96.99
74524;BME280;63074;44.696;10.358;2023-09-18T08:10:25;99930.81;;;35.74;90.90
74524;BME280;63074;44.696;10.358;2023-09-18T08:12:51;99937.28;;;35.60;91.67
74524;BME280;63074;44.696;10.358;2023-09-18T08:15:19;99929.97;;;34.61;98.21
74524;BME280;63074;44.696;10.358;2023-09-18T08:17:46;99937.63;;;35.73;91.96
74524;BME280;63074;44.696;10.358;2023-09-18T08:20:14;99938.75;;;36.41;88.51
74524;BME280;63074;44.696;10.358;2023-09-18T08:22:42;99925.66;;;35.69;92.06
74524;BME280;63074;44.696;10.358;2023-09-18T08:25:10;99926.69;;;36.00;90.21
74524;BME280;63074;44.696;10.358;2023-09-18T08:27:40;99937.50;;;35.94;89.79
74524;BME280;63074;44.696;10.358;2023-09-18T08:30:11;99937.25;;;35.64;89.87
74524;BME280;63074;44.696;10.358;2023-09-18T08:32:38;99936.38;;;36.84;84.67
74524;BME280;63074;44.696;10.358;2023-09-18T08:35:05;99931.91;;;36.46;85.95
74524;BME280;63074;44.696;10.358;2023-09-18T08:37:32;99919.69;;;36.29;87.66
74524;BME280;63074;44.696;10.358;2023-09-18T08:39:58;99908.63;;;35.45;92.81
74524;BME280;63074;44.696;10.358;2023-09-18T08:42:30;99912.94;;;35.57;92.98
74524;BME280;63074;44.696;10.358;2023-09-18T08:44:59;99907.72;;;36.22;88.89
74524;BME280;63074;44.696;10.358;2023-09-18T08:47:27;99913.16;;;36.88;85.25
74524;BME280;63074;44.696;10.358;2023-09-18T08:49:55;99907.00;;;36.62;85.68
74524;BME280;63074;44.696;10.358;2023-09-18T08:52:21;99915.41;;;36.10;88.47
74524;BME280;63074;44.696;10.358;2023-09-18T08:54:50;99911.78;;;36.13;89.73
74524;BME280;63074;44.696;10.358;2023-09-18T08:57:17;99921.22;;;36.37;86.97
74524;BME280;63074;44.696;10.358;2023-09-18T08:59:44;99910.59;;;36.11;87.73
74524;BME280;63074;44.696;10.358;2023-09-18T09:02:10;99918.13;;;36.21;89.58
74524;BME280;63074;44.696;10.358;2023-09-18T09:04:38;99933.41;;;36.99;84.62
74524;BME280;63074;44.696;10.358;2023-09-18T09:07:05;99931.09;;;36.94;84.49
74524;BME280;63074;44.696;10.358;2023-09-18T09:09:32;99926.03;;;36.78;84.82
74524;BME280;63074;44.696;10.358;2023-09-18T09:11:59;99914.06;;;35.70;90.99
74524;BME280;63074;44.696;10.358;2023-09-18T09:14:25;99922.06;;;36.75;85.88
74524;BME280;63074;44.696;10.358;2023-09-18T09:16:55;99914.16;;;36.67;85.49
74524;BME280;63074;44.696;10.358;2023-09-18T09:19:32;99909.84;;;36.55;85.46
74524;BME280;63074;44.696;10.358;2023-09-18T09:22:01;99900.44;;;37.13;83.45
74524;BME280;63074;44.696;10.358;2023-09-18T09:24:42;99892.31;;;35.37;93.52
74524;BME280;63074;44.696;10.358;2023-09-18T09:27:09;99904.34;;;35.16;94.13
74524;BME280;63074;44.696;10.358;2023-09-18T09:29:36;99900.50;;;34.60;100.00
74524;BME280;63074;44.696;10.358;2023-09-18T09:32:16;99900.16;;;35.56;94.27
74524;BME280;63074;44.696;10.358;2023-09-18T09:34:44;99890.38;;;35.16;97.24
74524;BME280;63074;44.696;10.358;2023-09-18T09:37:10;99892.94;;;35.62;94.29
74524;BME280;63074;44.696;10.358;2023-09-18T09:39:52;99899.81;;;36.61;87.00
74524;BME280;63074;44.696;10.358;2023-09-18T09:42:20;99893.19;;;35.93;92.47
74524;BME280;63074;44.696;10.358;2023-09-18T09:45:10;99878.25;;;36.10;91.08
74524;BME280;63074;44.696;10.358;2023-09-18T09:47:38;99884.41;;;36.39;90.01
74524;BME280;63074;44.696;10.358;2023-09-18T09:50:13;99895.66;;;34.93;98.16
74524;BME280;63074;44.696;10.358;2023-09-18T09:52:50;99886.91;;;34.69;100.00
74524;BME280;63074;44.696;10.358;2023-09-18T09:55:20;99872.25;;;36.11;91.99
74524;BME280;63074;44.696;10.358;2023-09-18T09:57:54;99882.81;;;35.09;97.27
74524;BME280;63074;44.696;10.358;2023-09-18T10:00:25;99883.91;;;36.51;90.63
74524;BME280;63074;44.696;10.358;2023-09-18T10:03:06;99867.72;;;36.69;87.93
74524;BME280;63074;44.696;10.358;2023-09-18T10:05:36;99870.41;;;37.48;83.67
74524;BME280;63074;44.696;10.358;2023-09-18T10:08:07;99871.78;;;35.61;92.61
74524;BME280;63074;44.696;10.358;2023-09-18T10:10:37;99877.09;;;36.52;88.45
74524;BME280;63074;44.696;10.358;2023-09-18T10:13:11;99881.94;;;36.89;84.92
74524;BME280;63074;44.696;10.358;2023-09-18T10:15:39;99868.66;;;38.11;80.22
74524;BME280;63074;44.696;10.358;2023-09-18T10:20:51;99851.50;;;36.53;87.29
74524;BME280;63074;44.696;10.358;2023-09-18T10:23:38;99858.38;;;37.21;85.15
74524;BME280;63074;44.696;10.358;2023-09-18T10:26:10;99873.16;;;36.46;86.91
74524;BME280;63074;44.696;10.358;2023-09-18T10:28:43;99863.38;;;36.20;89.48
74524;BME280;63074;44.696;10.358;2023-09-18T10:31:11;99872.19;;;34.54;100.00
74524;BME280;63074;44.696;10.358;2023-09-18T10:33:39;99862.84;;;33.26;100.00
74524;BME280;63074;44.696;10.358;2023-09-18T10:36:07;99867.28;;;33.31;100.00
74524;BME280;63074;44.696;10.358;2023-09-18T10:38:35;99841.88;;;33.61;100.00
74524;BME280;63074;44.696;10.358;2023-09-18T10:41:05;99862.97;;;34.72;100.00
74524;BME280;63074;44.696;10.358;2023-09-18T10:43:31;99843.94;;;35.50;100.00
74524;BME280;63074;44.696;10.358;2023-09-18T10:45:57;99889.78;;;35.60;98.93
74524;BME280;63074;44.696;10.358;2023-09-18T10:48:24;99849.41;;;33.39;100.00
74524;BME280;63074;44.696;10.358;2023-09-18T10:50:51;99851.75;;;34.97;100.00
74524;BME280;63074;44.696;10.358;2023-09-18T10:53:19;99844.91;;;36.74;92.17
74524;BME280;63074;44.696;10.358;2023-09-18T10:55:46;99837.66;;;37.11;88.05
74524;BME280;63074;44.696;10.358;2023-09-18T10:58:12;99832.91;;;36.70;89.87
74524;BME280;63074;44.696;10.358;2023-09-18T11:00:49;99849.28;;;36.38;91.75
74524;BME280;63074;44.696;10.358;2023-09-18T11:03:18;99848.88;;;35.22;99.82
74524;BME280;63074;44.696;10.358;2023-09-18T11:05:45;99835.47;;;34.88;100.00
74524;BME280;63074;44.696;10.358;2023-09-18T11:08:28;99826.09;;;36.71;93.51
74524;BME280;63074;44.696;10.358;2023-09-18T11:11:01;99813.34;;;35.88;97.42
74524;BME280;63074;44.696;10.358;2023-09-18T11:13:36;99836.00;;;36.01;99.80
74524;BME280;63074;44.696;10.358;2023-09-18T11:19:16;99823.16;;;36.07;95.56
74524;BME280;63074;44.696;10.358;2023-09-18T11:21:43;99821.09;;;34.86;100.00
74524;BME280;63074;44.696;10.358;2023-09-18T11:24:21;99811.22;;;33.57;100.00
74524;BME280;63074;44.696;10.358;2023-09-18T11:26:50;99829.38;;;35.04;100.00
74524;BME280;63074;44.696;10.358;2023-09-18T11:29:22;99828.19;;;35.74;100.00
74524;BME280;63074;44.696;10.358;2023-09-18T11:31:50;99826.97;;;35.09;100.00
74524;BME280;63074;44.696;10.358;2023-09-18T11:36:43;99827.22;;;34.31;100.00
74524;BME280;63074;44.696;10.358;2023-09-18T11:39:09;99806.22;;;35.10;100.00
74524;BME280;63074;44.696;10.358;2023-09-18T11:41:38;99813.31;;;36.36;94.25
74524;BME280;63074;44.696;10.358;2023-09-18T11:46:41;99823.78;;;36.29;92.92
74524;BME280;63074;44.696;10.358;2023-09-18T11:49:14;99830.59;;;37.30;83.45
74524;BME280;63074;44.696;10.358;2023-09-18T11:51:42;99826.34;;;37.99;80.71
74524;BME280;63074;44.696;10.358;2023-09-18T11:54:09;99834.09;;;37.07;81.66
74524;BME280;63074;44.696;10.358;2023-09-18T11:56:39;99822.75;;;37.17;75.28
74524;BME280;63074;44.696;10.358;2023-09-18T11:59:05;99818.22;;;37.54;75.32
74524;BME280;63074;44.696;10.358;2023-09-18T12:01:34;99785.09;;;38.42;71.47
74524;BME280;63074;44.696;10.358;2023-09-18T12:04:05;99793.94;;;37.74;72.98
74524;BME280;63074;44.696;10.358;2023-09-18T12:06:36;99791.50;;;39.38;66.89
74524;BME280;63074;44.696;10.358;2023-09-18T12:09:03;99790.75;;;38.62;72.04
74524;BME280;63074;44.696;10.358;2023-09-18T12:11:30;99799.38;;;39.27;67.93
74524;BME280;63074;44.696;10.358;2023-09-18T12:13:56;99810.59;;;38.51;72.50
74524;BME280;63074;44.696;10.358;2023-09-18T12:16:24;99808.22;;;38.70;70.74
74524;BME280;63074;44.696;10.358;2023-09-18T12:18:50;99809.94;;;39.92;65.68
74524;BME280;63074;44.696;10.358;2023-09-18T12:21:17;99798.78;;;39.36;65.05
74524;BME280;63074;44.696;10.358;2023-09-18T12:23:45;99793.53;;;38.82;65.91
74524;BME280;63074;44.696;10.358;2023-09-18T12:26:16;99797.41;;;38.48;65.92
74524;BME280;63074;44.696;10.358;2023-09-18T12:28:44;99798.09;;;37.63;68.40
74524;BME280;63074;44.696;10.358;2023-09-18T12:31:15;99784.56;;;37.31;64.91
74524;BME280;63074;44.696;10.358;2023-09-18T12:33:43;99776.22;;;36.29;63.49
74524;BME280;63074;44.696;10.358;2023-09-18T12:36:18;99780.53;;;36.37;60.88
74524;BME280;63074;44.696;10.358;2023-09-18T12:38:56;99768.44;;;36.81;56.46
74524;BME280;63074;44.696;10.358;2023-09-18T12:41:24;99769.06;;;37.76;55.77
74524;BME280;63074;44.696;10.358;2023-09-18T12:43:50;99771.56;;;36.87;56.17
74524;BME280;63074;44.696;10.358;2023-09-18T12:46:17;99778.06;;;37.07;56.34
74524;BME280;63074;44.696;10.358;2023-09-18T12:48:45;99787.16;;;36.88;55.00
74524;BME280;63074;44.696;10.358;2023-09-18T12:51:12;99778.44;;;37.39;54.30
74524;BME280;63074;44.696;10.358;2023-09-18T12:53:40;99764.19;;;37.80;53.24
74524;BME280;63074;44.696;10.358;2023-09-18T12:56:13;99775.00;;;36.98;55.39
74524;BME280;63074;44.696;10.358;2023-09-18T12:58:40;99764.28;;;37.23;53.63
74524;BME280;63074;44.696;10.358;2023-09-18T13:01:09;99753.06;;;38.20;51.62